createdAt,value
2018-03-16T00:01:02.731Z,57.8
2018-03-16T00:11:02.528Z,52.6
2018-03-16T00:21:02.450Z,53.9
2018-03-16T00:31:02.240Z,55.1
2018-03-16T00:41:02.043Z,54.0
2018-03-16T00:51:02.852Z,53.1
2018-03-16T01:01:02.662Z,48.4
2018-03-16T01:11:02.358Z,48.7
2018-03-16T01:21:02.256Z,57.7
2018-03-16T01:31:02.004Z,54.3
2018-03-16T01:41:02.684Z,55.5
2018-03-16T01:51:02.591Z,49.3
2018-03-16T02:01:02.356Z,53.9
2018-03-16T02:11:02.036Z,56.8
2018-03-16T02:21:01.922Z,60.6
2018-03-16T02:31:02.671Z,67.3
2018-03-16T02:41:02.478Z,66.0
2018-03-16T02:51:02.260Z,65.0
2018-03-16T03:01:02.099Z,59.9
2018-03-16T03:11:01.841Z,57.9
2018-03-16T03:21:02.705Z,68.9
2018-03-16T03:31:02.473Z,66.7
2018-03-16T03:41:02.266Z,66.4
2018-03-16T03:51:02.026Z,64.3
2018-03-16T04:01:02.784Z,64.7
2018-03-16T04:11:02.562Z,60.1
2018-03-16T04:21:02.439Z,62.7
2018-03-16T04:31:02.169Z,58.2
2018-03-16T04:41:01.978Z,59.4
2018-03-16T04:51:02.792Z,59.4
2018-03-16T05:01:02.567Z,58.1
2018-03-16T05:11:02.364Z,60.6
2018-03-16T05:21:02.430Z,62.2
2018-03-16T05:31:02.060Z,58.0
2018-03-16T05:41:02.849Z,52.3
2018-03-16T05:51:02.602Z,57.7
2018-03-16T06:01:02.380Z,49.1
2018-03-16T06:11:02.184Z,57.2
2018-03-16T06:21:02.057Z,53.7
2018-03-16T06:31:02.848Z,55.8
2018-03-16T06:41:02.647Z,51.4
2018-03-16T06:51:02.451Z,54.1
2018-03-16T07:01:02.203Z,51.3
2018-03-16T07:11:02.021Z,50.4
2018-03-16T07:21:01.893Z,52.2
2018-03-16T07:31:02.662Z,58.9
2018-03-16T07:41:02.421Z,55.4
2018-03-16T07:51:02.188Z,54.0
2018-03-16T08:01:02.088Z,56.5
2018-03-16T08:11:02.898Z,52.2
2018-03-16T08:21:02.831Z,56.2
2018-03-16T08:31:02.622Z,50.5
2018-03-16T08:41:02.430Z,56.7
2018-03-16T08:51:02.214Z,60.0
2018-03-16T09:01:02.000Z,59.1
2018-03-16T09:11:02.727Z,53.9
2018-03-16T09:21:02.694Z,51.5
2018-03-16T09:31:02.510Z,54.5
2018-03-16T09:41:02.328Z,54.7
2018-03-16T09:51:02.127Z,59.9
2018-03-16T10:01:01.869Z,58.2
2018-03-16T10:11:02.498Z,57.8
2018-03-16T10:21:02.390Z,47.1
2018-03-16T10:31:02.145Z,52.1
2018-03-16T10:41:01.910Z,55.9
2018-03-16T10:51:02.697Z,55.5
2018-03-16T11:01:02.406Z,56.1
2018-03-16T11:11:02.238Z,53.7
2018-03-16T11:21:02.160Z,57.5
2018-03-16T11:31:01.870Z,55.2
2018-03-16T11:41:02.662Z,60.7
2018-03-16T11:51:02.371Z,55.1
2018-03-16T12:01:02.127Z,57.4
2018-03-16T12:11:02.964Z,56.0
2018-03-16T12:21:02.881Z,59.7
2018-03-16T12:31:02.680Z,61.0
2018-03-16T12:41:02.468Z,57.4
2018-03-16T12:51:02.298Z,68.2
2018-03-16T13:01:02.118Z,58.1
2018-03-16T13:11:02.823Z,52.4
2018-03-16T13:21:02.659Z,51.4
2018-03-16T13:31:02.446Z,53.0
2018-03-16T13:41:02.248Z,52.6
2018-03-16T13:51:02.039Z,51.8
2018-03-16T14:01:02.816Z,48.4
2018-03-16T14:11:02.553Z,49.3
2018-03-16T14:21:02.470Z,52.3
2018-03-16T14:31:02.228Z,45.1
2018-03-16T14:41:02.027Z,47.6
2018-03-16T14:51:02.829Z,46.8
2018-03-16T15:01:02.614Z,48.1
2018-03-16T15:11:02.501Z,46.8
2018-03-16T15:21:02.386Z,41.7
2018-03-16T15:31:02.222Z,39.3
2018-03-16T15:41:02.012Z,16.7
2018-03-16T15:51:02.812Z,13.1
2018-03-16T16:01:02.601Z,12.7
2018-03-16T16:11:02.417Z,14.2
2018-03-16T16:21:02.313Z,11.5
2018-03-16T16:31:02.099Z,10.6
2018-03-16T16:41:02.865Z,12.2
2018-03-16T16:51:02.580Z,13.9
2018-03-16T17:01:02.334Z,12.3
2018-03-16T17:11:02.240Z,13.4
2018-03-16T17:21:02.218Z,14.9
2018-03-16T17:31:02.037Z,24.6
2018-03-16T17:41:02.867Z,13.3
2018-03-16T17:51:02.643Z,15.7
2018-03-16T18:01:02.449Z,17.1
2018-03-16T18:11:02.286Z,12.3
2018-03-16T18:21:02.331Z,15.2
2018-03-16T18:31:02.158Z,14.3
2018-03-16T18:41:02.941Z,12.8
2018-03-16T18:51:02.763Z,17.5
2018-03-16T19:01:02.593Z,19.0
2018-03-16T19:11:02.391Z,17.5
2018-03-16T19:21:02.298Z,15.6
2018-03-16T19:31:02.100Z,14.5
2018-03-16T19:41:02.895Z,14.7
2018-03-16T19:51:02.714Z,18.2
2018-03-16T20:01:02.441Z,20.1
2018-03-16T20:11:02.319Z,17.9
2018-03-16T20:21:02.246Z,18.7
2018-03-16T20:31:02.180Z,15.7
2018-03-16T20:41:02.042Z,17.4
2018-03-16T20:51:02.854Z,16.5
2018-03-16T21:01:02.658Z,19.7
2018-03-16T21:11:02.404Z,21.3
2018-03-16T21:21:02.295Z,17.8
2018-03-16T21:31:02.089Z,22.2
2018-03-16T21:41:02.849Z,21.3
2018-03-16T21:51:02.540Z,17.9
2018-03-16T22:01:02.301Z,19.4
2018-03-16T22:11:02.155Z,20.9
2018-03-16T22:21:02.037Z,18.3
2018-03-16T22:31:05.656Z,16.8
2018-03-16T22:41:02.438Z,13.6
2018-03-16T22:51:02.235Z,15.0
2018-03-16T23:01:02.048Z,16.0
2018-03-16T23:11:02.890Z,16.8
2018-03-16T23:21:02.802Z,12.4
2018-03-16T23:31:02.563Z,13.6
2018-03-16T23:41:02.303Z,16.4
2018-03-16T23:51:02.089Z,15.1
